createdAt,value
2018-10-19T00:00:25.160Z,15.24
2018-10-19T00:02:55.256Z,15.28
2018-10-19T00:05:28.271Z,15.29
2018-10-19T00:07:59.150Z,15.53
2018-10-19T00:10:28.252Z,15.64
2018-10-19T00:12:57.121Z,15.73
2018-10-19T00:15:27.076Z,15.73
2018-10-19T00:17:56.896Z,15.52
2018-10-19T00:20:25.594Z,15.51
2018-10-19T00:22:55.667Z,15.40
2018-10-19T00:25:24.883Z,15.54
2018-10-19T00:27:54.379Z,15.45
2018-10-19T00:30:23.442Z,15.26
2018-10-19T00:32:54.877Z,15.23
2018-10-19T00:35:23.368Z,15.47
2018-10-19T00:37:54.374Z,15.68
2018-10-19T00:40:23.714Z,15.45
2018-10-19T00:42:53.604Z,15.32
2018-10-19T00:45:28.095Z,15.13
2018-10-19T00:47:56.661Z,15.02
2018-10-19T00:50:25.692Z,15.00
2018-10-19T00:52:55.546Z,14.98
2018-10-19T00:55:25.456Z,14.85
2018-10-19T00:57:56.426Z,14.71
2018-10-19T01:00:25.988Z,14.56
2018-10-19T01:02:55.804Z,14.53
2018-10-19T01:05:25.109Z,14.42
2018-10-19T01:14:40.273Z,13.99
2018-10-19T01:17:09.984Z,14.25
2018-10-19T01:19:38.467Z,14.37
2018-10-19T01:22:07.027Z,14.36
2018-10-19T01:24:35.532Z,14.39
2018-10-19T01:27:05.259Z,14.42
2018-10-19T01:29:34.181Z,12.68
2018-10-19T01:32:03.723Z,14.61
2018-10-19T01:34:33.852Z,14.61
2018-10-19T01:37:06.826Z,13.88
2018-10-19T01:39:37.175Z,14.52
2018-10-19T01:42:07.215Z,14.44
2018-10-19T01:44:36.290Z,14.23
2018-10-19T01:47:05.154Z,14.18
2018-10-19T01:49:34.306Z,14.21
2018-10-19T01:52:03.755Z,14.28
2018-10-19T01:54:32.256Z,14.32
2018-10-19T01:57:03.712Z,14.39
2018-10-19T01:59:34.413Z,14.47
2018-10-19T02:02:04.594Z,14.61
2018-10-19T02:04:36.772Z,14.68
2018-10-19T02:07:06.384Z,14.53
2018-10-19T02:09:35.600Z,14.62
2018-10-19T02:12:05.229Z,14.51
2018-10-19T02:14:33.811Z,14.36
2018-10-19T02:17:04.374Z,14.22
2018-10-19T02:19:32.935Z,14.15
2018-10-19T02:22:02.572Z,14.12
2018-10-19T02:24:33.996Z,14.13
2018-10-19T02:27:03.701Z,14.25
2018-10-19T02:29:33.100Z,14.24
2018-10-19T02:32:03.760Z,14.29
2018-10-19T02:34:40.318Z,14.24
2018-10-19T02:37:09.328Z,14.15
2018-10-19T02:39:38.388Z,14.18
2018-10-19T02:42:10.954Z,14.32
2018-10-19T02:44:39.824Z,14.43
2018-10-19T02:47:11.190Z,14.60
2018-10-19T02:49:40.126Z,14.68
2018-10-19T02:52:08.923Z,14.43
2018-10-19T02:54:39.184Z,14.75
2018-10-19T02:57:08.107Z,11.26
2018-10-19T02:59:37.275Z,14.83
2018-10-19T03:02:07.435Z,10.95
2018-10-19T03:04:36.066Z,14.90
2018-10-19T03:07:05.615Z,14.74
2018-10-19T03:09:34.728Z,14.71
2018-10-19T03:12:03.956Z,14.62
2018-10-19T03:14:36.271Z,14.72
2018-10-19T03:17:05.898Z,14.91
2018-10-19T03:19:34.840Z,14.87
2018-10-19T03:22:03.673Z,14.77
2018-10-19T03:24:33.492Z,15.13
2018-10-19T03:27:03.612Z,14.98
2018-10-19T03:29:34.648Z,14.84
2018-10-19T03:32:05.725Z,14.55
2018-10-19T03:34:37.878Z,15.02
2018-10-19T03:37:06.888Z,15.07
2018-10-19T03:39:36.419Z,15.17
2018-10-19T03:42:05.805Z,15.09
2018-10-19T03:44:38.192Z,14.69
2018-10-19T03:47:08.277Z,14.99
2018-10-19T03:49:37.345Z,14.33
2018-10-19T03:52:07.364Z,14.99
2018-10-19T03:54:36.744Z,14.96
2018-10-19T03:57:06.520Z,15.10
2018-10-19T03:59:35.310Z,15.05
2018-10-19T04:02:05.007Z,15.07
2018-10-19T04:04:33.777Z,15.21
2018-10-19T04:07:02.661Z,15.05
2018-10-19T04:09:31.177Z,15.07
2018-10-19T04:12:01.912Z,15.20
2018-10-19T04:14:31.728Z,15.34
2018-10-19T04:17:01.567Z,15.31
2018-10-19T04:19:31.405Z,15.12
2018-10-19T04:22:01.400Z,14.65
2018-10-19T04:24:32.165Z,14.98
2018-10-19T04:29:37.128Z,15.00
2018-10-19T04:32:06.344Z,14.72
2018-10-19T04:34:36.177Z,15.08
2018-10-19T04:37:06.637Z,15.03
2018-10-19T04:39:39.330Z,15.02
2018-10-19T04:42:11.749Z,14.98
2018-10-19T04:44:41.347Z,14.78
2018-10-19T04:47:10.359Z,14.57
2018-10-19T04:49:39.479Z,14.58
2018-10-19T04:52:09.709Z,14.30
2018-10-19T04:54:38.795Z,14.56
2018-10-19T04:57:08.403Z,14.60
2018-10-19T04:59:38.415Z,14.51
2018-10-19T05:02:08.089Z,14.59
2018-10-19T05:04:38.229Z,14.99
2018-10-19T05:07:09.189Z,15.06
2018-10-19T05:09:38.295Z,14.90
2018-10-19T05:12:07.117Z,14.77
2018-10-19T05:14:39.192Z,14.96
2018-10-19T05:17:10.344Z,14.69
2018-10-19T05:19:39.833Z,14.50
2018-10-19T05:22:09.310Z,14.47
2018-10-19T05:24:38.790Z,13.72
2018-10-19T05:27:08.720Z,14.21
2018-10-19T05:29:38.059Z,14.18
2018-10-19T05:32:08.827Z,14.71
2018-10-19T05:34:40.332Z,14.75
2018-10-19T05:37:10.355Z,14.72
2018-10-19T05:39:41.959Z,14.97
2018-10-19T05:42:11.176Z,14.98
2018-10-19T05:44:43.556Z,14.83
2018-10-19T05:47:14.164Z,14.44
2018-10-19T05:49:42.578Z,13.80
2018-10-19T05:52:12.280Z,14.35
2018-10-19T05:54:41.440Z,14.38
2018-10-19T05:57:11.854Z,14.44
2018-10-19T05:59:40.436Z,14.56
2018-10-19T06:02:09.948Z,14.36
2018-10-19T06:04:38.463Z,14.65
2018-10-19T06:07:09.988Z,14.66
2018-10-19T06:09:39.091Z,14.23
2018-10-19T06:12:09.665Z,14.42
2018-10-19T06:14:38.842Z,14.33
2018-10-19T06:17:09.014Z,14.18
2018-10-19T06:19:39.420Z,14.13
2018-10-19T06:22:08.923Z,13.70
2018-10-19T06:24:48.516Z,13.46
2018-10-19T06:27:19.095Z,13.23
2018-10-19T06:29:48.608Z,13.19
2018-10-19T06:32:18.475Z,13.45
2018-10-19T06:34:47.408Z,13.31
2018-10-19T06:37:17.198Z,13.41
2018-10-19T06:39:51.707Z,13.45
2018-10-19T06:42:32.148Z,13.46
2018-10-19T06:45:32.574Z,13.58
2018-10-19T06:48:02.729Z,13.67
2018-10-19T06:50:31.806Z,13.68
2018-10-19T06:53:01.164Z,13.92
2018-10-19T06:55:29.907Z,13.78
2018-10-19T06:58:14.256Z,13.88
2018-10-19T07:00:42.833Z,14.13
2018-10-19T07:03:12.066Z,14.29
2018-10-19T07:05:43.071Z,14.61
2018-10-19T07:08:11.650Z,14.78
2018-10-19T07:10:42.616Z,14.76
2018-10-19T07:13:12.080Z,14.50
2018-10-19T07:15:42.503Z,14.66
2018-10-19T07:18:13.162Z,14.75
2018-10-19T07:20:43.401Z,14.97
2018-10-19T07:23:12.617Z,15.04
2018-10-19T07:25:49.127Z,15.09
2018-10-19T07:28:20.158Z,14.92
2018-10-19T07:30:49.789Z,14.91
2018-10-19T07:33:20.207Z,13.10
2018-10-19T07:36:05.451Z,14.87
2018-10-19T07:38:34.901Z,15.07
2018-10-19T07:41:05.157Z,15.48
2018-10-19T07:43:33.760Z,15.23
2018-10-19T07:46:02.915Z,15.18
2018-10-19T07:48:33.083Z,15.30
2018-10-19T07:51:02.589Z,15.52
2018-10-19T07:53:35.439Z,15.55
2018-10-19T07:56:06.504Z,15.60
2018-10-19T07:58:36.839Z,15.43
2018-10-19T08:01:06.719Z,15.42
2018-10-19T08:03:36.377Z,15.20
2018-10-19T08:06:05.188Z,15.18
2018-10-19T08:08:35.167Z,15.10
2018-10-19T08:11:05.934Z,14.96
2018-10-19T08:13:35.411Z,15.36
2018-10-19T08:16:04.532Z,15.45
2018-10-19T08:18:34.929Z,15.25
2018-10-19T08:21:06.874Z,15.57
2018-10-19T08:23:36.567Z,15.79
2018-10-19T08:26:06.108Z,15.64
2018-10-19T08:28:35.245Z,15.88
2018-10-19T08:31:07.532Z,15.74
2018-10-19T08:33:36.719Z,15.71
2018-10-19T08:36:05.681Z,15.81
2018-10-19T08:38:34.789Z,15.76
2018-10-19T08:41:06.423Z,16.01
2018-10-19T08:43:38.423Z,15.92
2018-10-19T08:46:14.464Z,15.73
2018-10-19T08:48:44.789Z,15.55
2018-10-19T08:51:14.316Z,15.75
2018-10-19T08:53:45.684Z,15.90
2018-10-19T08:56:15.227Z,16.61
2018-10-19T08:58:46.516Z,16.45
2018-10-19T09:01:15.763Z,16.64
2018-10-19T09:03:45.112Z,16.15
2018-10-19T09:06:14.731Z,16.69
2018-10-19T09:08:45.035Z,16.26
2018-10-19T09:11:15.611Z,16.09
2018-10-19T09:13:44.132Z,16.47
2018-10-19T09:16:13.685Z,16.32
2018-10-19T09:18:44.320Z,16.34
2018-10-19T09:21:14.775Z,16.72
2018-10-19T09:23:45.553Z,15.24
2018-10-19T09:26:15.611Z,16.70
2018-10-19T09:28:48.477Z,16.59
2018-10-19T09:31:18.600Z,17.01
2018-10-19T09:33:48.147Z,16.58
2018-10-19T09:36:17.643Z,16.64
2018-10-19T09:38:49.031Z,16.59
2018-10-19T09:41:19.840Z,16.53
2018-10-19T09:43:49.429Z,16.27
2018-10-19T09:46:19.716Z,16.80
2018-10-19T09:48:49.634Z,16.98
2018-10-19T09:51:22.105Z,17.40
2018-10-19T09:53:51.415Z,16.89
2018-10-19T09:56:20.349Z,16.95
2018-10-19T09:58:49.316Z,16.74
2018-10-19T10:01:25.353Z,16.61
2018-10-19T10:03:54.607Z,16.74
2018-10-19T10:06:25.252Z,16.31
2018-10-19T10:08:54.798Z,16.74
2018-10-19T10:11:23.611Z,17.43
2018-10-19T10:13:53.557Z,17.53
2018-10-19T10:16:23.037Z,17.50
2018-10-19T10:18:51.945Z,17.55
2018-10-19T10:21:22.087Z,17.90
2018-10-19T10:23:52.082Z,18.02
2018-10-19T10:26:21.473Z,18.16
2018-10-19T10:28:51.526Z,17.61
2018-10-19T10:31:22.015Z,17.47
2018-10-19T10:33:52.701Z,17.30
2018-10-19T10:36:22.402Z,17.30
2018-10-19T10:38:51.384Z,17.39
2018-10-19T10:41:21.784Z,17.56
2018-10-19T10:43:51.108Z,17.90
2018-10-19T10:46:21.651Z,17.72
2018-10-19T10:48:52.134Z,18.11
2018-10-19T10:51:24.530Z,18.24
2018-10-19T10:54:04.266Z,18.22
2018-10-19T10:56:35.790Z,18.14
2018-10-19T10:59:05.755Z,17.92
2018-10-19T11:01:36.104Z,17.78
2018-10-19T11:04:07.506Z,17.98
2018-10-19T11:06:37.956Z,17.95
2018-10-19T11:09:09.248Z,18.05
2018-10-19T11:11:41.040Z,18.23
2018-10-19T11:14:12.766Z,18.30
2018-10-19T11:16:42.193Z,18.53
2018-10-19T11:19:11.804Z,18.27
2018-10-19T11:21:41.091Z,18.51
2018-10-19T11:24:13.494Z,18.56
2018-10-19T11:29:43.713Z,18.18
2018-10-19T11:32:13.587Z,18.39
2018-10-19T11:34:42.236Z,18.74
2018-10-19T11:37:13.272Z,18.64
2018-10-19T11:39:52.658Z,19.08
2018-10-19T11:42:22.113Z,18.89
2018-10-19T11:44:53.038Z,19.03
2018-10-19T11:47:23.012Z,19.27
2018-10-19T11:49:52.209Z,19.09
2018-10-19T11:52:22.110Z,18.95
2018-10-19T11:54:52.010Z,19.23
2018-10-19T11:57:20.758Z,19.36
2018-10-19T11:59:51.543Z,19.22
2018-10-19T12:02:22.916Z,19.46
2018-10-19T12:04:53.332Z,19.66
2018-10-19T12:07:22.570Z,19.54
2018-10-19T12:09:52.199Z,19.26
2018-10-19T12:12:22.563Z,19.34
2018-10-19T12:14:53.335Z,19.82
2018-10-19T12:17:22.935Z,19.48
2018-10-19T12:19:52.958Z,19.55
2018-10-19T12:22:24.036Z,19.16
2018-10-19T12:24:53.893Z,19.51
2018-10-19T12:27:23.137Z,19.59
2018-10-19T12:29:52.731Z,19.48
2018-10-19T12:32:22.659Z,19.69
2018-10-19T12:34:52.667Z,19.59
2018-10-19T12:37:21.937Z,19.49
2018-10-19T12:39:50.968Z,19.29
2018-10-19T12:42:22.619Z,19.98
2018-10-19T12:44:52.591Z,19.81
2018-10-19T12:47:39.241Z,19.78
2018-10-19T12:50:09.580Z,19.45
2018-10-19T12:52:38.733Z,19.70
2018-10-19T12:55:10.149Z,19.52
2018-10-19T12:57:39.340Z,19.66
2018-10-19T13:00:09.799Z,19.57
2018-10-19T13:02:39.470Z,19.51
2018-10-19T13:05:11.051Z,19.60
2018-10-19T13:07:40.128Z,19.58
2018-10-19T13:10:15.905Z,19.76
2018-10-19T13:12:45.664Z,19.75
2018-10-19T13:15:15.442Z,19.79
2018-10-19T13:17:45.820Z,20.03
2018-10-19T13:20:16.507Z,19.98
2018-10-19T13:22:45.779Z,19.80
2018-10-19T13:25:14.387Z,19.63
2018-10-19T13:27:43.956Z,19.89
2018-10-19T13:30:13.099Z,20.21
2018-10-19T13:32:43.077Z,20.15
2018-10-19T13:35:13.197Z,20.16
2018-10-19T13:37:42.869Z,19.90
2018-10-19T13:40:13.791Z,20.10
2018-10-19T13:42:44.006Z,20.15
2018-10-19T13:45:13.179Z,20.53
2018-10-19T13:47:44.490Z,20.45
2018-10-19T13:50:13.268Z,20.23
2018-10-19T13:52:43.095Z,20.20
2018-10-19T13:55:11.692Z,20.27
2018-10-19T13:57:41.978Z,20.78
2018-10-19T14:00:12.021Z,20.59
2018-10-19T14:02:40.619Z,20.45
2018-10-19T14:05:10.975Z,20.33
2018-10-19T14:07:43.226Z,20.37
2018-10-19T14:10:13.740Z,20.62
2018-10-19T14:12:42.828Z,20.26
2018-10-19T14:15:12.828Z,20.68
2018-10-19T14:17:43.735Z,20.52
2018-10-19T14:20:13.744Z,20.41
2018-10-19T14:22:43.342Z,20.71
2018-10-19T14:25:14.823Z,20.24
2018-10-19T14:27:45.087Z,20.17
2018-10-19T14:30:15.262Z,20.44
2018-10-19T14:32:44.695Z,20.29
2018-10-19T14:35:15.213Z,20.29
2018-10-19T14:37:46.130Z,20.24
2018-10-19T14:40:19.880Z,20.35
2018-10-19T14:42:48.840Z,20.20
2018-10-19T14:45:18.388Z,20.44
2018-10-19T14:47:49.521Z,20.40
2018-10-19T14:50:19.222Z,19.98
2018-10-19T14:52:48.763Z,20.08
2018-10-19T14:55:19.336Z,20.02
2018-10-19T14:57:48.485Z,20.08
2018-10-19T15:00:19.706Z,19.94
2018-10-19T15:02:49.549Z,20.02
2018-10-19T15:05:19.855Z,20.11
2018-10-19T15:07:49.991Z,20.06
2018-10-19T15:13:05.775Z,20.09
2018-10-19T15:15:37.088Z,19.94
2018-10-19T15:18:10.886Z,19.92
2018-10-19T15:20:40.784Z,19.75
2018-10-19T15:23:09.313Z,19.66
2018-10-19T15:25:39.393Z,19.74
2018-10-19T15:28:09.691Z,19.91
2018-10-19T15:30:39.142Z,19.94
2018-10-19T15:33:08.186Z,19.86
2018-10-19T15:35:38.134Z,19.76
2018-10-19T15:38:06.665Z,19.70
2018-10-19T15:40:36.000Z,19.67
2018-10-19T15:43:07.313Z,19.78
2018-10-19T15:45:36.832Z,19.34
2018-10-19T15:48:06.604Z,19.93
2018-10-19T15:50:37.489Z,20.02
2018-10-19T15:53:07.248Z,19.98
2018-10-19T15:55:37.010Z,19.89
2018-10-19T15:58:06.182Z,12.66
2018-10-19T16:00:37.805Z,19.65
2018-10-19T16:03:06.932Z,19.74
2018-10-19T16:05:35.530Z,19.84
2018-10-19T16:08:04.916Z,19.95
2018-10-19T16:10:33.700Z,19.98
2018-10-19T16:13:05.575Z,19.98
2018-10-19T16:15:36.084Z,19.81
2018-10-19T16:18:06.708Z,17.04
2018-10-19T16:20:38.705Z,20.08
2018-10-19T16:23:08.317Z,20.04
2018-10-19T16:25:40.143Z,19.85
2018-10-19T16:28:10.205Z,19.79
2018-10-19T16:30:38.977Z,19.77
2018-10-19T16:33:08.402Z,19.74
2018-10-19T16:35:37.869Z,19.62
2018-10-19T16:38:08.329Z,19.68
2018-10-19T16:40:37.360Z,19.50
2018-10-19T16:43:07.327Z,19.34
2018-10-19T16:45:37.853Z,18.92
2018-10-19T16:49:36.651Z,19.36
2018-10-19T16:52:10.645Z,19.07
2018-10-19T16:54:39.817Z,18.93
2018-10-19T16:57:09.699Z,19.11
2018-10-19T16:59:40.577Z,18.97
2018-10-19T17:02:11.303Z,18.95
2018-10-19T17:04:41.571Z,19.03
2018-10-19T17:07:10.445Z,18.97
2018-10-19T17:09:41.052Z,18.99
2018-10-19T17:12:11.639Z,18.90
2018-10-19T17:14:40.636Z,18.86
2018-10-19T17:17:10.420Z,18.74
2018-10-19T17:19:39.688Z,18.80
2018-10-19T17:22:08.932Z,18.60
2018-10-19T17:24:38.891Z,18.52
2018-10-19T17:27:08.532Z,18.61
2018-10-19T17:29:37.034Z,18.64
2018-10-19T17:32:07.169Z,18.60
2018-10-19T17:34:38.312Z,18.47
2018-10-19T17:37:09.555Z,18.50
2018-10-19T17:39:38.981Z,18.50
2018-10-19T17:42:08.356Z,18.42
2018-10-19T17:44:38.036Z,18.23
2018-10-19T17:47:08.054Z,18.19
2018-10-19T17:49:38.656Z,18.22
2018-10-19T17:52:09.540Z,17.95
2018-10-19T17:54:39.052Z,17.67
2018-10-19T17:57:10.253Z,17.62
2018-10-19T17:59:39.695Z,17.37
2018-10-19T18:02:08.599Z,17.46
2018-10-19T18:04:39.301Z,17.26
2018-10-19T18:07:08.684Z,17.70
2018-10-19T18:09:40.555Z,17.75
2018-10-19T18:12:10.147Z,17.55
2018-10-19T18:14:39.508Z,17.69
2018-10-19T18:17:09.157Z,17.75
2018-10-19T18:19:38.071Z,17.86
2018-10-19T18:22:10.199Z,17.23
2018-10-19T18:24:39.560Z,17.19
2018-10-19T18:27:08.871Z,16.99
2018-10-19T18:29:39.423Z,17.63
2018-10-19T18:32:09.267Z,17.25
2018-10-19T18:34:40.614Z,17.31
2018-10-19T18:37:10.093Z,17.28
2018-10-19T18:39:40.678Z,16.60
2018-10-19T18:42:10.425Z,16.63
2018-10-19T18:44:40.277Z,17.08
2018-10-19T18:47:09.937Z,17.36
2018-10-19T18:49:38.389Z,17.34
2018-10-19T18:52:09.346Z,17.40
2018-10-19T18:54:38.732Z,17.58
2018-10-19T18:57:09.670Z,17.44
2018-10-19T18:59:40.163Z,17.16
2018-10-19T19:02:09.357Z,17.25
2018-10-19T19:04:38.821Z,17.36
2018-10-19T19:07:09.052Z,17.25
2018-10-19T19:09:39.537Z,17.13
2018-10-19T19:12:11.091Z,17.39
2018-10-19T19:14:40.336Z,17.27
2018-10-19T19:17:11.196Z,17.07
2018-10-19T19:19:41.385Z,16.76
2018-10-19T19:22:11.785Z,17.01
2018-10-19T19:24:46.805Z,17.01
2018-10-19T19:27:15.496Z,16.89
2018-10-19T19:29:44.877Z,16.92
2018-10-19T19:32:14.116Z,16.89
2018-10-19T19:34:43.662Z,16.74
2018-10-19T19:37:12.515Z,17.00
2018-10-19T19:39:42.912Z,17.07
2018-10-19T19:42:18.212Z,16.99
2018-10-19T19:44:50.433Z,16.97
2018-10-19T19:47:26.412Z,17.10
2018-10-19T19:50:00.130Z,17.05
2018-10-19T19:52:31.058Z,16.88
2018-10-19T19:55:02.192Z,16.84
2018-10-19T19:57:31.332Z,16.61
2018-10-19T20:00:03.391Z,16.03
2018-10-19T20:02:33.160Z,15.79
2018-10-19T20:05:01.775Z,15.86
2018-10-19T20:07:30.816Z,16.10
2018-10-19T20:10:00.277Z,15.95
2018-10-19T20:12:30.312Z,16.13
2018-10-19T20:15:01.407Z,16.31
2018-10-19T20:17:32.083Z,16.05
2018-10-19T20:20:01.151Z,16.25
2018-10-19T20:22:30.789Z,16.40
2018-10-19T20:24:59.955Z,16.73
2018-10-19T20:27:29.584Z,16.27
2018-10-19T20:29:58.100Z,16.06
2018-10-19T20:32:27.512Z,15.97
2018-10-19T20:34:56.241Z,15.94
2018-10-19T20:37:26.422Z,15.92
2018-10-19T20:39:58.311Z,15.63
2018-10-19T20:42:27.676Z,15.77
2018-10-19T20:44:56.313Z,15.30
2018-10-19T20:47:26.596Z,15.47
2018-10-19T20:49:57.653Z,15.14
2018-10-19T20:52:28.132Z,15.34
2018-10-19T20:54:56.710Z,15.21
2018-10-19T20:57:28.783Z,14.85
2018-10-19T20:59:59.204Z,15.12
2018-10-19T21:02:29.131Z,15.07
2018-10-19T21:04:59.467Z,15.01
2018-10-19T21:07:29.569Z,15.12
2018-10-19T21:09:59.628Z,15.23
2018-10-19T21:12:30.472Z,15.57
2018-10-19T21:14:59.503Z,15.76
2018-10-19T21:17:28.021Z,15.44
2018-10-19T21:19:58.046Z,15.52
2018-10-19T21:22:27.336Z,15.79
2018-10-19T21:24:57.260Z,15.49
2018-10-19T21:27:27.501Z,15.24
2018-10-19T21:29:58.478Z,14.79
2018-10-19T21:32:28.879Z,15.02
2018-10-19T21:34:57.659Z,15.00
2018-10-19T21:37:27.148Z,14.79
2018-10-19T21:39:56.692Z,14.65
2018-10-19T21:42:27.820Z,14.33
2018-10-19T21:44:58.274Z,14.35
2018-10-19T21:47:28.736Z,14.39
2018-10-19T21:49:58.381Z,14.35
2018-10-19T21:52:28.106Z,13.86
2018-10-19T21:54:58.629Z,14.08
2018-10-19T21:57:29.524Z,14.23
2018-10-19T21:59:58.040Z,14.23
2018-10-19T22:02:26.685Z,14.24
2018-10-19T22:04:56.176Z,14.41
2018-10-19T22:07:25.532Z,14.99
2018-10-19T22:09:55.367Z,14.53
2018-10-19T22:12:26.014Z,14.24
2018-10-19T22:14:54.561Z,14.56
2018-10-19T22:17:24.515Z,14.03
2018-10-19T22:22:38.867Z,14.08
2018-10-19T22:25:07.819Z,14.03
2018-10-19T22:27:37.404Z,14.30
2018-10-19T22:30:09.831Z,14.03
2018-10-19T22:32:39.016Z,13.87
2018-10-19T22:35:08.266Z,13.75
2018-10-19T22:37:38.612Z,13.88
2018-10-19T22:40:08.124Z,14.00
2018-10-19T22:42:37.276Z,14.02
2018-10-19T22:45:08.168Z,13.59
2018-10-19T22:47:37.986Z,13.66
2018-10-19T22:50:06.884Z,13.56
2018-10-19T22:52:36.954Z,13.39
2018-10-19T22:55:07.016Z,13.49
2018-10-19T22:57:36.492Z,13.17
2018-10-19T23:00:06.204Z,13.26
2018-10-19T23:02:36.790Z,13.26
2018-10-19T23:05:06.013Z,12.84
2018-10-19T23:07:36.724Z,13.00
2018-10-19T23:10:08.400Z,13.21
2018-10-19T23:12:37.960Z,13.32
2018-10-19T23:15:07.651Z,12.59
2018-10-19T23:17:37.602Z,13.02
2018-10-19T23:20:08.335Z,13.03
2018-10-19T23:22:37.291Z,12.85
2018-10-19T23:25:08.560Z,12.99
2018-10-19T23:27:39.245Z,13.07
2018-10-19T23:30:10.348Z,13.00
2018-10-19T23:32:39.445Z,13.44
2018-10-19T23:35:10.164Z,13.56
2018-10-19T23:37:40.773Z,13.48
2018-10-19T23:40:11.180Z,12.78
2018-10-19T23:42:46.950Z,13.25
2018-10-19T23:45:15.787Z,13.16
2018-10-19T23:47:45.809Z,13.61
2018-10-19T23:50:16.964Z,13.54
2018-10-19T23:52:46.910Z,13.30
2018-10-19T23:55:16.573Z,12.94
2018-10-19T23:57:46.480Z,12.98
